Time;durP1;ratioP1;P1;durP2;ratioP2;P2;SDS_P1;SDS_P2;PMS_P1;PMS_P2;Temp;Humidity;BMP_temperature;BMP_pressure;BME280_temperature;BME280_humidity;BME280_pressure;Samples;Min_cycle;Max_cycle;Signal;HPM_P1;HPM_P2
2021/07/23 00:00:15;;;;;;;1.35;0.55;;;;;;;-142.37;100.00;59669.53;4994121;28;20054;-62
2021/07/23 00:02:41;;;;;;;0.80;0.43;;;;;;;-142.37;100.00;59669.53;4994726;28;20042;-61
2021/07/23 00:05:07;;;;;;;0.82;0.40;;;;;;;-142.37;100.00;59669.53;4994300;28;20461;-63
2021/07/23 00:07:33;;;;;;;0.50;0.50;;;;;;;-142.37;100.00;59669.53;4994509;28;20026;-62
2021/07/23 00:09:58;;;;;;;0.95;0.40;;;;;;;-142.37;100.00;59669.53;4976748;28;20526;-62
2021/07/23 00:12:23;;;;;;;1.75;0.50;;;;;;;-142.37;100.00;59669.53;4994154;28;20540;-62
2021/07/23 00:14:49;;;;;;;2.15;0.60;;;;;;;-142.37;100.00;59669.53;4994288;28;20524;-63
2021/07/23 00:17:14;;;;;;;1.25;0.50;;;;;;;-142.37;100.00;59669.53;4994738;28;20030;-62
2021/07/23 00:19:39;;;;;;;0.77;0.50;;;;;;;-142.37;100.00;59669.53;5013905;28;20018;-62
2021/07/23 00:22:05;;;;;;;0.63;0.30;;;;;;;-142.37;100.00;59669.53;5013858;28;20026;-62
2021/07/23 00:24:31;;;;;;;2.03;0.30;;;;;;;-142.37;100.00;59669.53;5013903;28;20420;-62
2021/07/23 00:26:56;;;;;;;0.65;0.43;;;;;;;-142.37;100.00;59669.53;5013563;28;20034;-62
2021/07/23 00:29:22;;;;;;;0.30;0.30;;;;;;;-142.37;100.00;59669.53;5013855;28;20100;-62
2021/07/23 00:31:47;;;;;;;1.10;0.50;;;;;;;-142.37;100.00;59669.53;5013796;28;20492;-62
2021/07/23 00:34:14;;;;;;;1.48;0.50;;;;;;;-142.37;100.00;59669.53;5013655;28;20072;-62
2021/07/23 00:36:39;;;;;;;0.73;0.40;;;;;;;-142.37;100.00;59669.53;5013556;28;20342;-61
2021/07/23 00:39:05;;;;;;;1.33;0.50;;;;;;;-142.37;100.00;59669.53;5013422;28;20029;-61
2021/07/23 00:41:30;;;;;;;0.95;0.40;;;;;;;-142.37;100.00;59669.53;5013475;28;20400;-62
2021/07/23 00:43:55;;;;;;;1.42;0.73;;;;;;;-142.37;100.00;59669.53;5013385;28;20033;-62
2021/07/23 00:46:28;;;;;;;1.00;0.60;;;;;;;-142.37;100.00;59669.53;5013723;28;20332;-61
2021/07/23 00:48:53;;;;;;;0.30;0.30;;;;;;;-142.37;100.00;59669.53;5013346;28;20080;-61
2021/07/23 00:51:19;;;;;;;0.90;0.40;;;;;;;-142.37;100.00;59669.53;5013254;28;20054;-61
2021/07/23 00:53:44;;;;;;;1.50;0.40;;;;;;;-142.37;100.00;59669.53;5013527;28;20133;-61
2021/07/23 00:56:10;;;;;;;1.58;0.30;;;;;;;-142.37;100.00;59669.53;5013030;28;20029;-61
2021/07/23 00:58:36;;;;;;;0.70;0.40;;;;;;;-142.37;100.00;59669.53;5013433;28;20069;-61
2021/07/23 01:01:02;;;;;;;3.05;0.80;;;;;;;-142.37;100.00;59669.53;5013060;28;20072;-61
2021/07/23 01:03:28;;;;;;;0.40;0.35;;;;;;;-142.37;100.00;59669.53;5013198;28;20054;-61
2021/07/23 01:05:55;;;;;;;0.70;0.57;;;;;;;-142.37;100.00;59669.53;5013167;28;20061;-61
2021/07/23 01:08:21;;;;;;;0.63;0.43;;;;;;;-142.37;100.00;59669.53;5013361;28;20025;-61
2021/07/23 01:10:46;;;;;;;2.25;0.43;;;;;;;-142.37;100.00;59669.53;5013397;28;20029;-63
2021/07/23 01:13:13;;;;;;;0.32;0.20;;;;;;;-142.37;100.00;59669.53;5013133;28;20045;-61
2021/07/23 01:15:38;;;;;;;0.50;0.43;;;;;;;-142.37;100.00;59669.53;5013276;28;20065;-62
2021/07/23 01:18:04;;;;;;;0.40;0.30;;;;;;;-142.37;100.00;59669.53;5005841;28;20062;-61
2021/07/23 01:20:29;;;;;;;0.93;0.40;;;;;;;-142.37;100.00;59669.53;4993372;28;20037;-63
2021/07/23 01:22:58;;;;;;;2.40;0.40;;;;;;;-142.37;100.00;59669.53;4993691;28;20022;-62
2021/07/23 01:25:24;;;;;;;0.70;0.50;;;;;;;-142.37;100.00;59669.53;4993543;28;20022;-62
2021/07/23 01:27:51;;;;;;;0.73;0.63;;;;;;;-142.37;100.00;59669.53;4976159;28;20381;-62
2021/07/23 01:30:18;;;;;;;0.73;0.30;;;;;;;-142.37;100.00;59669.53;4993290;28;20069;-61
2021/07/23 01:32:43;;;;;;;0.75;0.30;;;;;;;-142.37;100.00;59669.53;4993463;28;20030;-61
2021/07/23 01:35:10;;;;;;;0.90;0.50;;;;;;;-142.37;100.00;59669.53;4993420;28;20411;-61
2021/07/23 01:37:35;;;;;;;0.73;0.43;;;;;;;-142.37;100.00;59669.53;4993035;28;20026;-62
2021/07/23 01:40:01;;;;;;;0.65;0.43;;;;;;;-142.37;100.00;59669.53;4993219;28;20041;-61
2021/07/23 01:42:28;;;;;;;0.57;0.28;;;;;;;-142.37;100.00;59669.53;4993373;28;20054;-61
2021/07/23 01:44:54;;;;;;;0.93;0.40;;;;;;;-142.37;100.00;59669.53;4993316;28;20433;-61
2021/07/23 01:47:19;;;;;;;0.63;0.55;;;;;;;-142.37;100.00;59669.53;4993399;28;20026;-61
2021/07/23 01:49:45;;;;;;;0.60;0.30;;;;;;;-142.37;100.00;59669.53;4992914;28;20027;-61
2021/07/23 01:52:10;;;;;;;0.98;0.40;;;;;;;-142.37;100.00;59669.53;4992294;28;20665;-61
2021/07/23 01:54:36;;;;;;;0.47;0.40;;;;;;;-142.37;100.00;59669.53;4993158;28;20061;-61
2021/07/23 01:57:05;;;;;;;0.88;0.32;;;;;;;-142.37;100.00;59669.53;4993198;28;20022;-61
2021/07/23 01:59:30;;;;;;;0.98;0.57;;;;;;;-142.37;100.00;59669.53;4993051;28;20038;-60
2021/07/23 02:01:56;;;;;;;0.60;0.43;;;;;;;-142.37;100.00;59669.53;4992959;28;20400;-60
2021/07/23 02:04:22;;;;;;;0.68;0.50;;;;;;;-142.37;100.00;59669.53;4993217;28;20018;-60
2021/07/23 02:06:48;;;;;;;1.42;0.70;;;;;;;-142.37;100.00;59669.53;4993079;28;20041;-61
2021/07/23 02:09:13;;;;;;;1.33;0.50;;;;;;;-142.37;100.00;59669.53;4993100;28;20030;-61
2021/07/23 02:11:38;;;;;;;1.95;0.47;;;;;;;-142.37;100.00;59669.53;4993866;28;20022;-61
2021/07/23 02:14:07;;;;;;;0.43;0.40;;;;;;;-142.37;100.00;59669.53;4996829;28;20041;-61
2021/07/23 02:16:33;;;;;;;0.82;0.57;;;;;;;-142.37;100.00;59669.53;4996574;28;20022;-61
2021/07/23 02:18:58;;;;;;;0.47;0.45;;;;;;;-142.37;100.00;59669.53;5011041;28;20026;-61
2021/07/23 02:21:24;;;;;;;0.82;0.50;;;;;;;-142.37;100.00;59669.53;5016132;28;20037;-61
2021/07/23 02:23:49;;;;;;;1.75;0.60;;;;;;;-142.37;100.00;59669.53;5016061;28;20018;-62
2021/07/23 02:26:18;;;;;;;0.80;0.35;;;;;;;-142.37;100.00;59669.53;5015694;28;20029;-61
2021/07/23 02:28:44;;;;;;;2.25;0.40;;;;;;;-142.37;100.00;59669.53;5016116;28;20160;-61
2021/07/23 02:31:10;;;;;;;0.65;0.43;;;;;;;-142.37;100.00;59669.53;5015803;28;20029;-60
2021/07/23 02:33:35;;;;;;;0.52;0.40;;;;;;;-142.37;100.00;59669.53;5015680;28;20025;-61
2021/07/23 02:36:01;;;;;;;1.35;0.40;;;;;;;-142.37;100.00;59669.53;5015594;28;20044;-61
2021/07/23 02:38:26;;;;;;;0.90;0.43;;;;;;;-142.37;100.00;59669.53;5015577;28;20092;-61
2021/07/23 02:40:54;;;;;;;0.75;0.70;;;;;;;-142.37;100.00;59669.53;5015821;28;20072;-61
2021/07/23 02:43:20;;;;;;;0.38;0.32;;;;;;;-142.37;100.00;59669.53;5015647;28;20032;-61
2021/07/23 02:45:45;;;;;;;0.60;0.32;;;;;;;-142.37;100.00;59669.53;5015442;28;20030;-61
2021/07/23 02:48:10;;;;;;;1.08;0.60;;;;;;;-142.37;100.00;59669.53;5015521;28;20049;-61
2021/07/23 02:50:36;;;;;;;1.52;0.52;;;;;;;-142.37;100.00;59669.53;5015493;28;20049;-61
2021/07/23 02:53:02;;;;;;;1.08;0.70;;;;;;;-142.37;100.00;59669.53;5015420;28;20488;-61
2021/07/23 02:55:27;;;;;;;0.80;0.70;;;;;;;-142.37;100.00;59669.53;5015566;28;20037;-61
2021/07/23 02:57:52;;;;;;;1.30;0.50;;;;;;;-142.37;100.00;59669.53;5015422;28;20053;-60
2021/07/23 03:00:18;;;;;;;1.23;0.40;;;;;;;-142.37;100.00;59669.53;5015060;28;20046;-61
2021/07/23 03:02:44;;;;;;;1.27;0.60;;;;;;;-142.37;100.00;59669.53;5015198;28;20038;-61
2021/07/23 03:05:09;;;;;;;1.05;0.60;;;;;;;-142.37;100.00;59669.53;5014991;28;20029;-61
2021/07/23 03:07:35;;;;;;;0.95;0.43;;;;;;;-142.37;100.00;59669.53;5015349;28;20057;-61
2021/07/23 03:10:00;;;;;;;0.43;0.32;;;;;;;-142.37;100.00;59669.53;5015213;28;20165;-61
2021/07/23 03:12:25;;;;;;;0.50;0.40;;;;;;;-142.37;100.00;59669.53;5015152;28;20025;-61
2021/07/23 03:14:51;;;;;;;1.98;0.50;;;;;;;-142.37;100.00;59669.53;5015230;28;20033;-61
2021/07/23 03:17:16;;;;;;;0.85;0.50;;;;;;;-142.37;100.00;59669.53;5014134;28;20022;-61
2021/07/23 03:19:41;;;;;;;0.50;0.40;;;;;;;-142.37;100.00;59669.53;4995403;28;20033;-60
2021/07/23 03:22:07;;;;;;;0.98;0.35;;;;;;;-142.37;100.00;59669.53;4995144;28;20038;-60
2021/07/23 03:24:34;;;;;;;0.60;0.20;;;;;;;-142.37;100.00;59669.53;4995122;28;20484;-61
2021/07/23 03:26:59;;;;;;;1.65;0.50;;;;;;;-142.37;100.00;59669.53;4977873;28;20054;-60
2021/07/23 03:29:24;;;;;;;1.20;0.50;;;;;;;-142.37;100.00;59669.53;4995323;28;20018;-61
2021/07/23 03:31:50;;;;;;;1.10;0.63;;;;;;;-142.37;100.00;59669.53;4995339;28;20524;-61
2021/07/23 03:34:15;;;;;;;1.02;0.50;;;;;;;-142.37;100.00;59669.53;4994441;28;20465;-61
2021/07/23 03:36:40;;;;;;;1.13;0.70;;;;;;;-142.37;100.00;59669.53;5006104;28;20030;-61
2021/07/23 03:39:06;;;;;;;0.95;0.57;;;;;;;-142.37;100.00;59669.53;5014270;28;20060;-60
2021/07/23 03:41:31;;;;;;;0.80;0.43;;;;;;;-142.37;100.00;59669.53;5014495;28;20551;-60
2021/07/23 03:43:56;;;;;;;2.13;0.77;;;;;;;-142.37;100.00;59669.53;5014324;28;20472;-61
2021/07/23 03:46:21;;;;;;;2.60;0.75;;;;;;;-142.37;100.00;59669.53;5014533;28;20064;-61
2021/07/23 03:48:47;;;;;;;0.45;0.43;;;;;;;-142.37;100.00;59669.53;5013990;28;20022;-61
2021/07/23 03:51:12;;;;;;;1.42;0.40;;;;;;;-142.37;100.00;59669.53;5014458;28;20481;-61
2021/07/23 03:53:38;;;;;;;1.17;0.40;;;;;;;-142.37;100.00;59669.53;5014194;28;20523;-60
2021/07/23 03:56:05;;;;;;;1.23;0.50;;;;;;;-142.37;100.00;59669.53;5014029;28;20053;-60
2021/07/23 03:58:30;;;;;;;1.83;0.63;;;;;;;-142.37;100.00;59669.53;5013062;28;20540;-61
2021/07/23 04:00:56;;;;;;;1.30;0.40;;;;;;;-142.37;100.00;59669.53;5013960;28;20587;-63
2021/07/23 04:03:21;;;;;;;1.05;0.30;;;;;;;-142.37;100.00;59669.53;5013846;28;20144;-64
2021/07/23 04:05:46;;;;;;;0.38;0.30;;;;;;;-142.37;100.00;59669.53;5014317;28;20018;-63
2021/07/23 04:08:11;;;;;;;1.38;0.40;;;;;;;-142.37;100.00;59669.53;5014094;28;20377;-64
2021/07/23 04:10:37;;;;;;;0.73;0.57;;;;;;;-142.37;100.00;59669.53;5014198;28;20026;-64
2021/07/23 04:13:02;;;;;;;0.52;0.30;;;;;;;-142.37;100.00;59669.53;5013995;28;20492;-65
2021/07/23 04:15:27;;;;;;;1.42;0.30;;;;;;;-142.37;100.00;59669.53;5013893;28;20052;-64
2021/07/23 04:17:53;;;;;;;0.35;0.20;;;;;;;-142.37;100.00;59669.53;5008054;28;20474;-64
2021/07/23 04:20:18;;;;;;;0.30;0.20;;;;;;;-142.37;100.00;59669.53;4994092;28;20047;-65
2021/07/23 04:22:43;;;;;;;0.30;0.17;;;;;;;-142.37;100.00;59669.53;4994186;28;20034;-65
2021/07/23 04:25:11;;;;;;;0.52;0.40;;;;;;;-142.37;100.00;59669.53;4977036;28;20030;-65
2021/07/23 04:27:36;;;;;;;0.70;0.40;;;;;;;-142.37;100.00;59669.53;4994170;28;20496;-66
2021/07/23 04:30:03;;;;;;;0.60;0.30;;;;;;;-142.37;100.00;59669.53;4994052;28;20023;-66
2021/07/23 04:32:28;;;;;;;0.20;0.20;;;;;;;-142.37;100.00;59669.53;4994057;28;20053;-65
2021/07/23 04:34:53;;;;;;;0.40;0.30;;;;;;;-142.37;100.00;59669.53;4993714;28;20439;-67
2021/07/23 04:37:19;;;;;;;2.53;0.52;;;;;;;-142.37;100.00;59669.53;4994039;28;20069;-67
2021/07/23 04:39:44;;;;;;;0.60;0.30;;;;;;;-142.37;100.00;59669.53;4993967;28;20040;-67
2021/07/23 04:42:11;;;;;;;0.80;0.32;;;;;;;-142.37;100.00;59669.53;4993751;28;20500;-70
2021/07/23 04:44:37;;;;;;;0.60;0.40;;;;;;;-142.37;100.00;59669.53;4993831;28;20377;-67
2021/07/23 04:47:02;;;;;;;0.60;0.30;;;;;;;-142.37;100.00;59669.53;4993887;28;20030;-67
2021/07/23 04:49:28;;;;;;;1.02;0.35;;;;;;;-142.37;100.00;59669.53;4993910;28;20068;-67
2021/07/23 04:51:54;;;;;;;0.50;0.50;;;;;;;-142.37;100.00;59669.53;4994039;28;20049;-68
2021/07/23 04:54:20;;;;;;;1.25;0.35;;;;;;;-142.37;100.00;59669.53;4993941;28;20045;-69
2021/07/23 04:56:48;;;;;;;1.55;0.38;;;;;;;-142.37;100.00;59669.53;4976453;28;20038;-68
2021/07/23 04:59:13;;;;;;;0.77;0.20;;;;;;;-142.37;100.00;59669.53;4993401;28;20374;-69
2021/07/23 05:01:38;;;;;;;0.93;0.40;;;;;;;-142.37;100.00;59669.53;4993583;28;20037;-68
2021/07/23 05:04:04;;;;;;;0.65;0.30;;;;;;;-142.37;100.00;59669.53;4976288;28;20080;-68
2021/07/23 05:06:29;;;;;;;0.80;0.28;;;;;;;-142.37;100.00;59669.53;4993673;28;20034;-69
2021/07/23 05:08:55;;;;;;;1.90;0.60;;;;;;;-142.37;100.00;59669.53;5011948;28;20025;-70
2021/07/23 05:11:21;;;;;;;1.00;0.35;;;;;;;-142.37;100.00;59669.53;4980546;28;20045;-68
2021/07/23 05:13:46;;;;;;;2.58;0.30;;;;;;;-142.37;100.00;59669.53;4993645;28;20037;-68
2021/07/23 05:16:12;;;;;;;0.70;0.20;;;;;;;-142.37;100.00;59669.53;4993380;28;20034;-68
2021/07/23 05:18:39;;;;;;;0.70;0.30;;;;;;;-142.37;100.00;59669.53;5005486;28;20022;-67
2021/07/23 05:21:06;;;;;;;0.35;0.17;;;;;;;-142.37;100.00;59669.53;4995307;28;20468;-66
2021/07/23 05:23:34;;;;;;;1.35;0.50;;;;;;;-142.37;100.00;59669.53;5013260;28;20053;-68
2021/07/23 05:26:01;;;;;;;0.68;0.30;;;;;;;-142.37;100.00;59669.53;4997623;28;20023;-66
2021/07/23 05:28:26;;;;;;;2.40;0.47;;;;;;;-142.37;100.00;59669.53;5012038;28;20025;-69
2021/07/23 05:30:52;;;;;;;0.73;0.30;;;;;;;-142.37;100.00;59669.53;5006794;28;20029;-68
2021/07/23 05:33:17;;;;;;;1.55;0.30;;;;;;;-142.37;100.00;59669.53;5012075;28;20457;-66
2021/07/23 05:35:42;;;;;;;0.32;0.22;;;;;;;-142.37;100.00;59669.53;5012439;28;20034;-66
2021/07/23 05:38:14;;;;;;;1.73;0.40;;;;;;;-142.37;100.00;59669.53;5010633;28;20061;-66
2021/07/23 05:40:40;;;;;;;1.25;0.30;;;;;;;-142.37;100.00;59669.53;5001320;28;20373;-67
2021/07/23 05:43:06;;;;;;;0.50;0.30;;;;;;;-142.37;100.00;59669.53;5012944;28;20037;-67
2021/07/23 05:45:32;;;;;;;0.75;0.30;;;;;;;-142.37;100.00;59669.53;5012526;28;20026;-67
2021/07/23 05:47:58;;;;;;;1.15;0.30;;;;;;;-142.37;100.00;59669.53;5013022;28;20034;-67
2021/07/23 05:50:23;;;;;;;1.10;0.38;;;;;;;-142.37;100.00;59669.53;5016703;28;20038;-66
2021/07/23 05:52:48;;;;;;;0.30;0.30;;;;;;;-142.37;100.00;59669.53;4999152;28;20018;-67
2021/07/23 05:55:14;;;;;;;0.40;0.30;;;;;;;-142.37;100.00;59669.53;5015755;28;20034;-66
2021/07/23 05:57:40;;;;;;;1.25;0.52;;;;;;;-142.37;100.00;59669.53;5004828;28;20034;-68
2021/07/23 06:00:06;;;;;;;0.50;0.40;;;;;;;-142.37;100.00;59669.53;4996204;28;20476;-67
2021/07/23 06:02:31;;;;;;;1.60;0.45;;;;;;;-142.37;100.00;59669.53;5012079;28;20033;-67
2021/07/23 06:04:57;;;;;;;0.50;0.30;;;;;;;-142.37;100.00;59669.53;5015246;28;20026;-66
2021/07/23 06:07:22;;;;;;;1.10;0.47;;;;;;;-142.37;100.00;59669.53;5016195;28;20146;-66
2021/07/23 06:09:47;;;;;;;2.45;0.30;;;;;;;-142.37;100.00;59669.53;5016499;28;20025;-66
2021/07/23 06:12:13;;;;;;;0.95;0.35;;;;;;;-142.37;100.00;59669.53;5003842;28;20504;-68
2021/07/23 06:14:38;;;;;;;0.88;0.40;;;;;;;-142.37;100.00;59669.53;4995662;28;20054;-68
2021/07/23 06:17:04;;;;;;;0.47;0.28;;;;;;;-142.37;100.00;59669.53;4995840;28;20026;-67
2021/07/23 06:19:29;;;;;;;0.35;0.35;;;;;;;-142.37;100.00;59669.53;4995915;28;20038;-68
2021/07/23 06:21:55;;;;;;;0.95;0.30;;;;;;;-142.37;100.00;59669.53;5012763;28;20022;-67
2021/07/23 06:24:20;;;;;;;2.45;0.75;;;;;;;-142.37;100.00;59669.53;5015155;28;20412;-68
2021/07/23 06:26:45;;;;;;;0.38;0.30;;;;;;;-142.37;100.00;59669.53;4996525;28;20581;-68
2021/07/23 06:29:11;;;;;;;0.65;0.43;;;;;;;-142.37;100.00;59669.53;4996222;28;20037;-69
2021/07/23 06:31:36;;;;;;;1.20;0.30;;;;;;;-142.37;100.00;59669.53;4979326;28;20057;-67
2021/07/23 06:34:02;;;;;;;0.47;0.20;;;;;;;-142.37;100.00;59669.53;4996395;28;20034;-68
2021/07/23 06:36:31;;;;;;;0.82;0.32;;;;;;;-142.37;100.00;59669.53;4996264;28;20439;-67
2021/07/23 06:38:56;;;;;;;0.93;0.28;;;;;;;-142.37;100.00;59669.53;4996534;28;20026;-68
2021/07/23 06:41:22;;;;;;;1.50;0.47;;;;;;;-142.37;100.00;59669.53;4996052;28;20061;-63
2021/07/23 06:43:47;;;;;;;1.10;0.40;;;;;;;-142.37;100.00;59669.53;4978876;28;20053;-63
2021/07/23 06:46:12;;;;;;;0.73;0.22;;;;;;;-142.37;100.00;59669.53;4995392;28;20444;-65
2021/07/23 06:48:38;;;;;;;1.90;0.52;;;;;;;-142.37;100.00;59669.53;5004033;28;20033;-64
2021/07/23 06:51:04;;;;;;;2.33;0.40;;;;;;;-142.37;100.00;59669.53;5015739;28;20033;-67
2021/07/23 06:53:29;;;;;;;0.98;0.75;;;;;;;-142.37;100.00;59669.53;4998424;28;20050;-63
2021/07/23 06:55:55;;;;;;;1.02;0.50;;;;;;;-142.37;100.00;59669.53;4996183;28;20054;-66
2021/07/23 06:58:20;;;;;;;1.05;0.43;;;;;;;-142.37;100.00;59669.53;4995182;28;20018;-65
2021/07/23 07:00:45;;;;;;;0.52;0.40;;;;;;;-142.37;100.00;59669.53;4995209;28;20473;-66
2021/07/23 07:03:11;;;;;;;0.63;0.35;;;;;;;-142.37;100.00;59669.53;4978274;28;20027;-66
2021/07/23 07:05:36;;;;;;;0.68;0.40;;;;;;;-142.37;100.00;59669.53;4995535;28;20034;-66
2021/07/23 07:08:02;;;;;;;1.17;0.30;;;;;;;-142.37;100.00;59669.53;4995551;28;20030;-61
2021/07/23 07:10:28;;;;;;;1.50;0.40;;;;;;;-142.37;100.00;59669.53;4995795;28;20041;-63
2021/07/23 07:12:57;;;;;;;1.42;0.45;;;;;;;-142.37;100.00;59669.53;4995951;28;20470;-63
2021/07/23 07:15:23;;;;;;;0.60;0.43;;;;;;;-142.37;100.00;59669.53;4995575;28;20061;-62
2021/07/23 07:17:53;;;;;;;0.75;0.40;;;;;;;-142.37;100.00;59669.53;5000648;28;20045;-62
2021/07/23 07:20:19;;;;;;;0.80;0.30;;;;;;;-142.37;100.00;59669.53;5014966;28;20034;-63
2021/07/23 07:22:44;;;;;;;0.77;0.50;;;;;;;-142.37;100.00;59669.53;5015288;28;20048;-62
2021/07/23 07:25:10;;;;;;;1.60;0.52;;;;;;;-142.37;100.00;59669.53;5014918;28;20410;-62
2021/07/23 07:27:35;;;;;;;0.70;0.40;;;;;;;-142.37;100.00;59669.53;5014893;28;20041;-62
2021/07/23 07:30:01;;;;;;;0.63;0.32;;;;;;;-142.37;100.00;59669.53;5014816;28;20461;-61
2021/07/23 07:32:26;;;;;;;0.28;0.25;;;;;;;-142.37;100.00;59669.53;5015051;28;20080;-63
2021/07/23 07:34:51;;;;;;;0.57;0.17;;;;;;;-142.37;100.00;59669.53;5014404;28;20029;-62
2021/07/23 07:37:17;;;;;;;0.20;0.20;;;;;;;-142.37;100.00;59669.53;5014672;28;20072;-62
2021/07/23 07:39:42;;;;;;;3.40;0.40;;;;;;;-142.37;100.00;59669.53;5014702;28;20032;-63
2021/07/23 07:42:07;;;;;;;0.30;0.30;;;;;;;-142.37;100.00;59669.53;5014659;28;20049;-62
2021/07/23 07:44:33;;;;;;;0.43;0.32;;;;;;;-142.37;100.00;59669.53;5014909;28;20404;-62
2021/07/23 07:46:58;;;;;;;2.22;0.40;;;;;;;-142.37;100.00;59669.53;5014546;28;20025;-62
2021/07/23 07:49:23;;;;;;;1.55;0.40;;;;;;;-142.37;100.00;59669.53;5001029;28;20029;-63
2021/07/23 07:51:49;;;;;;;0.40;0.30;;;;;;;-142.37;100.00;59669.53;5002089;28;20033;-63
2021/07/23 07:54:14;;;;;;;0.30;0.22;;;;;;;-142.37;100.00;59669.53;5014274;28;20034;-62
2021/07/23 07:56:40;;;;;;;0.30;0.20;;;;;;;-142.37;100.00;59669.53;5014567;28;20026;-62
2021/07/23 07:59:07;;;;;;;1.55;0.50;;;;;;;-142.37;100.00;59669.53;5014238;28;20564;-63
2021/07/23 08:01:32;;;;;;;0.90;0.20;;;;;;;-142.37;100.00;59669.53;5014320;28;20018;-61
2021/07/23 08:03:57;;;;;;;0.68;0.30;;;;;;;-142.37;100.00;59669.53;5014235;28;20040;-61
2021/07/23 08:06:25;;;;;;;0.52;0.10;;;;;;;-142.37;100.00;59669.53;5014239;28;20026;-61
2021/07/23 08:08:52;;;;;;;0.40;0.30;;;;;;;-142.37;100.00;59669.53;5013458;28;20494;-60
2021/07/23 08:11:18;;;;;;;0.45;0.30;;;;;;;-142.37;100.00;59669.53;5013659;28;20026;-61
2021/07/23 08:13:43;;;;;;;0.28;0.28;;;;;;;-142.37;100.00;59669.53;5014080;28;20368;-61
2021/07/23 08:16:12;;;;;;;0.73;0.45;;;;;;;-142.37;100.00;59669.53;5013618;28;20025;-61
2021/07/23 08:18:38;;;;;;;0.10;0.10;;;;;;;-142.37;100.00;59669.53;5014154;28;20129;-61
2021/07/23 08:21:04;;;;;;;0.63;0.20;;;;;;;-142.37;100.00;59669.53;4996024;28;20515;-61
2021/07/23 08:23:30;;;;;;;0.55;0.30;;;;;;;-142.37;100.00;59669.53;5013973;28;20029;-61
2021/07/23 08:25:56;;;;;;;0.45;0.25;;;;;;;-142.37;100.00;59669.53;5013849;28;20072;-60
2021/07/23 08:28:21;;;;;;;2.58;0.40;;;;;;;-142.37;100.00;59669.53;5013906;28;20074;-61
2021/07/23 08:30:48;;;;;;;1.15;0.40;;;;;;;-142.37;100.00;59669.53;5013802;28;20025;-61
2021/07/23 08:33:13;;;;;;;2.38;0.30;;;;;;;-142.37;100.00;59669.53;5013720;28;20440;-61
2021/07/23 08:35:41;;;;;;;0.82;0.43;;;;;;;-142.37;100.00;59669.53;5013814;28;20049;-61
2021/07/23 08:38:06;;;;;;;0.35;0.20;;;;;;;-142.37;100.00;59669.53;5013401;28;20104;-61
2021/07/23 08:40:32;;;;;;;1.05;0.38;;;;;;;-142.37;100.00;59669.53;5013376;28;20022;-61
2021/07/23 08:42:57;;;;;;;0.77;0.60;;;;;;;-142.37;100.00;59669.53;5013640;28;20468;-61
2021/07/23 08:45:23;;;;;;;1.73;0.50;;;;;;;-142.37;100.00;59669.53;5013319;28;20140;-61
2021/07/23 08:47:48;;;;;;;1.38;0.25;;;;;;;-142.37;100.00;59669.53;5013322;28;20025;-61
2021/07/23 08:50:14;;;;;;;0.82;0.30;;;;;;;-142.37;100.00;59669.53;5013365;28;20022;-61
2021/07/23 08:52:43;;;;;;;0.40;0.30;;;;;;;-142.37;100.00;59669.53;5013416;28;20113;-61
2021/07/23 08:55:10;;;;;;;1.40;0.70;;;;;;;-142.37;100.00;59669.53;5013433;28;20022;-60
2021/07/23 08:57:36;;;;;;;0.73;0.30;;;;;;;-142.37;100.00;59669.53;5013248;28;20022;-60
2021/07/23 09:00:11;;;;;;;0.60;0.40;;;;;;;-142.37;100.00;59669.53;5012813;28;20041;-60
2021/07/23 09:03:06;;;;;;;0.20;0.20;;;;;;;-142.37;100.00;59669.53;5013495;28;20052;-60
2021/07/23 09:05:33;;;;;;;0.30;0.28;;;;;;;-142.37;100.00;59669.53;5012831;28;20040;-60
2021/07/23 09:08:19;;;;;;;0.57;0.45;;;;;;;-142.37;100.00;59669.53;5012748;28;20022;-60
2021/07/23 09:10:45;;;;;;;2.33;0.40;;;;;;;-142.37;100.00;59669.53;4994171;28;20243;-60
2021/07/23 09:13:20;;;;;;;0.20;0.20;;;;;;;-142.37;100.00;59669.53;4993413;28;20027;-60
2021/07/23 09:15:45;;;;;;;0.20;0.20;;;;;;;-142.37;100.00;59669.53;4993354;28;20467;-60
2021/07/23 09:18:31;;;;;;;0.32;0.30;;;;;;;-142.37;100.00;59669.53;5001416;28;20136;-60
2021/07/23 09:21:00;;;;;;;0.20;0.20;;;;;;;-142.37;100.00;59669.53;5014042;28;20053;-60
2021/07/23 09:23:36;;;;;;;0.22;0.20;;;;;;;-142.37;100.00;59669.53;5017361;28;20072;-60
2021/07/23 09:26:24;;;;;;;1.45;0.40;;;;;;;-142.37;100.00;59669.53;5013763;28;20408;-60
2021/07/23 09:28:49;;;;;;;0.40;0.40;;;;;;;-142.37;100.00;59669.53;4997412;28;20109;-60
2021/07/23 09:31:27;;;;;;;0.35;0.28;;;;;;;-142.37;100.00;59669.53;4996587;28;20118;-60
2021/07/23 09:33:54;;;;;;;1.50;0.50;;;;;;;-142.37;100.00;59669.53;4997557;28;20026;-60
2021/07/23 09:36:20;;;;;;;0.50;0.38;;;;;;;-142.37;100.00;59669.53;4997434;28;20034;-60
2021/07/23 09:38:47;;;;;;;0.40;0.28;;;;;;;-142.37;100.00;59669.53;4997251;28;20064;-60
2021/07/23 09:41:25;;;;;;;0.40;0.38;;;;;;;-142.37;100.00;59669.53;4996909;28;20026;-60
2021/07/23 09:44:07;;;;;;;0.55;0.40;;;;;;;-142.37;100.00;59669.53;4997248;28;20029;-60
2021/07/23 09:46:34;;;;;;;0.38;0.30;;;;;;;-142.37;100.00;59669.53;4997295;28;20026;-60
2021/07/23 09:49:02;;;;;;;0.43;0.25;;;;;;;-142.37;100.00;59669.53;4997092;28;20073;-60
2021/07/23 09:51:28;;;;;;;0.30;0.25;;;;;;;-142.37;100.00;59669.53;4996845;28;20465;-60
2021/07/23 09:53:55;;;;;;;1.05;0.30;;;;;;;-142.37;100.00;59669.53;4997042;28;20030;-60
2021/07/23 09:56:23;;;;;;;0.57;0.32;;;;;;;-142.37;100.00;59669.53;4997004;28;20101;-60
2021/07/23 09:58:55;;;;;;;1.42;0.40;;;;;;;-142.37;100.00;59669.53;4996878;28;20049;-60
2021/07/23 10:01:31;;;;;;;0.20;0.20;;;;;;;-142.37;100.00;59669.53;4996172;28;20023;-60
2021/07/23 10:04:03;;;;;;;0.88;0.22;;;;;;;-142.37;100.00;59669.53;4996676;28;20049;-60
2021/07/23 10:06:34;;;;;;;0.90;0.30;;;;;;;-142.37;100.00;59669.53;4996428;28;20026;-60
2021/07/23 10:09:07;;;;;;;0.88;0.40;;;;;;;-142.37;100.00;59669.53;4996897;28;20226;-60
2021/07/23 10:11:33;;;;;;;0.87;0.47;;;;;;;-142.37;100.00;59669.53;4996699;28;20023;-60
2021/07/23 10:14:01;;;;;;;0.95;0.40;;;;;;;-142.37;100.00;59669.53;4996682;28;20041;-60
2021/07/23 10:16:27;;;;;;;0.82;0.38;;;;;;;-142.37;100.00;59669.53;4996716;28;20041;-60
2021/07/23 10:18:53;;;;;;;2.97;0.50;;;;;;;-142.37;100.00;59669.53;4996448;28;20105;-60
2021/07/23 10:21:18;;;;;;;2.20;0.28;;;;;;;-142.37;100.00;59669.53;4996248;28;20022;-60
2021/07/23 10:23:46;;;;;;;0.60;0.22;;;;;;;-142.37;100.00;59669.53;4996681;28;20211;-60
2021/07/23 10:26:12;;;;;;;1.65;0.47;;;;;;;-142.37;100.00;59669.53;4996141;28;20113;-60
2021/07/23 10:28:38;;;;;;;0.63;0.30;;;;;;;-142.37;100.00;59669.53;5009481;28;20022;-60
2021/07/23 10:31:24;;;;;;;0.40;0.30;;;;;;;-142.37;100.00;59669.53;5015931;28;20025;-60
2021/07/23 10:33:59;;;;;;;0.20;0.15;;;;;;;-142.37;100.00;59669.53;5015150;28;20026;-60
2021/07/23 10:36:30;;;;;;;0.43;0.43;;;;;;;-142.37;100.00;59669.53;5015845;28;20057;-60
2021/07/23 10:39:04;;;;;;;0.43;0.38;;;;;;;-142.37;100.00;59669.53;4996197;28;20029;-60
2021/07/23 10:41:40;;;;;;;1.15;0.38;;;;;;;-142.37;100.00;59669.53;5015113;28;20029;-60
2021/07/23 10:44:28;;;;;;;0.40;0.38;;;;;;;-142.37;100.00;59669.53;4997906;28;20038;-60
2021/07/23 10:46:58;;;;;;;0.20;0.15;;;;;;;-142.37;100.00;59669.53;4935791;29;20066;-60
2021/07/23 10:49:30;;;;;;;2.13;0.28;;;;;;;-142.37;100.00;59669.53;4935898;29;20039;-60
2021/07/23 10:52:04;;;;;;;0.70;0.28;;;;;;;-142.37;100.00;59669.53;4935557;29;20431;-61
2021/07/23 10:54:30;;;;;;;;;;;;;;;-142.37;100.00;59669.53;4936487;29;20063;-60
2021/07/23 10:57:02;;;;;;;0.52;0.20;;;;;;;-142.37;100.00;59669.53;4935919;29;19953;-60
2021/07/23 10:59:39;;;;;;;0.85;0.20;;;;;;;-142.37;100.00;59669.53;4932370;29;20044;-61
2021/07/23 11:02:05;;;;;;;0.40;0.20;;;;;;;-142.37;100.00;59669.53;4934528;29;20530;-60
2021/07/23 11:04:31;;;;;;;0.77;0.20;;;;;;;-142.37;100.00;59669.53;4935492;29;20138;-61
2021/07/23 11:07:00;;;;;;;0.90;0.20;;;;;;;-142.37;100.00;59669.53;4935761;29;20063;-60